Time;durP1;ratioP1;P1;durP2;ratioP2;P2;SDS_P1;SDS_P2;PMS_P1;PMS_P2;Temp;Humidity;BMP_temperature;BMP_pressure;BME280_temperature;BME280_humidity;BME280_pressure;Samples;Min_cycle;Max_cycle;Signal;HPM_P1;HPM_P2
2023/10/10 00:00:23;;;;;;;;;;;;;;;;;;5094743;28;19965;-70
2023/10/10 00:02:50;;;;;;;;;;;;;;;;;;5095175;28;19908;-70
2023/10/10 00:05:18;;;;;;;;;;;;;;;;;;5095123;28;19904;-71
2023/10/10 00:07:44;;;;;;;;;;;;;;;;;;5095364;28;19904;-71
2023/10/10 00:10:13;;;;;;;;;;;;;;;;;;5095031;28;19911;-71
2023/10/10 00:12:39;;;;;;;;;;;;;;;;;;5094507;28;20267;-71
2023/10/10 00:15:05;;;;;;;;;;;;;;;;;;5095478;28;19904;-70
2023/10/10 00:17:34;;;;;;;;;;;;;;;;;;5094929;28;19987;-70
2023/10/10 00:20:16;;;;;;;;;;;;;;;;;;5094197;28;19923;-70
2023/10/10 00:22:43;;;;;;;;;;;;;;;;;;5094844;28;19949;-70
2023/10/10 00:25:12;;;;;;;;;;;;;;;;;;5095043;28;19911;-70
2023/10/10 00:27:39;;;;;;;;;;;;;;;;;;5094434;28;19904;-70
2023/10/10 00:30:06;;;;;;;;;;;;;;;;;;5076464;28;19904;-71
2023/10/10 00:32:35;;;;;;;;;;;;;;;;;;5094638;28;19904;-70
2023/10/10 00:35:06;;;;;;;;;;;;;;;;;;5094207;28;19983;-70
2023/10/10 00:37:34;;;;;;;;;;;;;;;;;;5094565;28;19911;-70
2023/10/10 00:40:07;;;;;;;;;;;;;;;;;;5094418;28;19947;-71
2023/10/10 00:42:42;;;;;;;;;;;;;;;;;;5094067;28;20368;-70
2023/10/10 00:45:12;;;;;;;;;;;;;;;;;;5094717;28;19911;-71
2023/10/10 00:47:40;;;;;;;;;;;;;;;;;;5094679;28;19904;-71
2023/10/10 00:50:15;;;;;;;;;;;;;;;;;;5076271;28;20304;-70
2023/10/10 00:52:41;;;;;;;;;;;;;;;;;;5094475;28;20387;-70
2023/10/10 00:55:09;;;;;;;;;;;;;;;;;;5093834;28;19973;-70
2023/10/10 00:57:38;;;;;;;;;;;;;;;;;;5094299;28;19947;-71
2023/10/10 01:00:14;;;;;;;;;;;;;;;;;;5094138;28;20374;-70
2023/10/10 01:02:42;;;;;;;;;;;;;;;;;;5093784;28;19904;-72
2023/10/10 01:05:16;;;;;;;;;;;;;;;;;;5094131;28;19904;-72
2023/10/10 01:07:48;;;;;;;;;;;;;;;;;;5094209;28;19904;-71
2023/10/10 01:10:16;;;;;;;;;;;;;;;;;;5093981;28;19911;-71
2023/10/10 01:12:42;;;;;;;;;;;;;;;;;;5094068;28;19904;-71
2023/10/10 01:15:14;;;;;;;;;;;;;;;;;;5093986;28;19904;-71
2023/10/10 01:17:40;;;;;;;;;;;;;;;;;;5075575;28;19904;-71
2023/10/10 01:20:49;;;;;;;;;;;;;;;;;;5093734;28;19923;-71
2023/10/10 01:22:56;;;;;;;;;;;;;;;;;;5082528;28;19947;-72
2023/10/10 01:28:05;;;;;;;;;;;;;;;;;;5093888;28;19904;-71
2023/10/10 01:30:43;;;;;;;;;;;;;;;;;;5093448;28;20279;-71
2023/10/10 01:33:16;;;;;;;;;;;;;;;;;;5093923;28;19908;-72
2023/10/10 01:35:42;;;;;;;;;;;;;;;;;;5093944;28;19927;-72
2023/10/10 01:38:13;;;;;;;;;;;;;;;;;;5093539;28;19904;-71
2023/10/10 01:40:39;;;;;;;;;;;;;;;;;;5075614;28;19916;-71
2023/10/10 01:43:10;;;;;;;;;;;;;;;;;;5075629;28;19910;-72
2023/10/10 01:45:41;;;;;;;;;;;;;;;;;;5093440;28;19943;-71
2023/10/10 01:48:08;;;;;;;;;;;;;;;;;;5094353;28;19940;-71
2023/10/10 01:50:34;;;;;;;;;;;;;;;;;;5093670;28;19971;-72
2023/10/10 01:53:00;;;;;;;;;;;;;;;;;;5093282;28;19910;-72
2023/10/10 01:55:26;;;;;;;;;;;;;;;;;;5093639;28;20275;-71
2023/10/10 01:57:52;;;;;;;;;;;;;;;;;;5093220;28;19904;-72
2023/10/10 02:00:35;;;;;;;;;;;;;;;;;;5093521;28;19912;-72
2023/10/10 02:03:03;;;;;;;;;;;;;;;;;;5093884;28;19991;-71
2023/10/10 02:05:41;;;;;;;;;;;;;;;;;;5075645;28;19907;-71
2023/10/10 02:08:11;;;;;;;;;;;;;;;;;;5097588;28;19903;-72
2023/10/10 02:10:43;;;;;;;;;;;;;;;;;;5097320;28;19927;-72
2023/10/10 02:13:11;;;;;;;;;;;;;;;;;;5097151;28;20383;-70
2023/10/10 02:15:39;;;;;;;;;;;;;;;;;;5097511;28;20011;-73
2023/10/10 02:18:06;;;;;;;;;;;;;;;;;;5097785;28;19964;-72
2023/10/10 02:23:44;;;;;;;;;;;;;;;;;;5097453;28;19998;-71
2023/10/10 02:25:47;;;;;;;;;;;;;;;;;;5085949;28;19904;-72
2023/10/10 02:30:45;;;;;;;;;;;;;;;;;;5096944;28;19904;-73
2023/10/10 02:33:22;;;;;;;;;;;;;;;;;;5096517;28;19911;-72
2023/10/10 02:35:54;;;;;;;;;;;;;;;;;;5096899;28;19911;-71
2023/10/10 02:38:22;;;;;;;;;;;;;;;;;;5096764;28;19904;-71
2023/10/10 02:40:52;;;;;;;;;;;;;;;;;;5096496;28;20278;-71
2023/10/10 02:43:46;;;;;;;;;;;;;;;;;;5096752;28;19904;-72
2023/10/10 02:46:05;;;;;;;;;;;;;;;;;;5095886;28;19927;-72
2023/10/10 02:48:34;;;;;;;;;;;;;;;;;;5096516;28;19911;-72
2023/10/10 02:51:03;;;;;;;;;;;;;;;;;;5096864;28;19911;-72
2023/10/10 02:53:32;;;;;;;;;;;;;;;;;;5096542;28;19908;-72
2023/10/10 02:56:01;;;;;;;;;;;;;;;;;;5096112;28;19904;-72
2023/10/10 02:58:28;;;;;;;;;;;;;;;;;;5096554;28;20275;-72
2023/10/10 03:00:57;;;;;;;;;;;;;;;;;;5078520;28;19908;-72
2023/10/10 03:03:24;;;;;;;;;;;;;;;;;;5095944;28;19904;-72
2023/10/10 03:05:58;;;;;;;;;;;;;;;;;;5078158;28;20379;-72
2023/10/10 03:08:34;;;;;;;;;;;;;;;;;;5095840;28;20356;-72
2023/10/10 03:11:00;;;;;;;;;;;;;;;;;;5096454;28;19904;-72
2023/10/10 03:13:36;;;;;;;;;;;;;;;;;;5096153;28;20003;-72
2023/10/10 03:16:19;;;;;;;;;;;;;;;;;;5095669;28;19904;-71
2023/10/10 03:29:26;;;;;;;;;;;;;;;;;;5095720;28;20399;-71
2023/10/10 03:34:56;;;;;;;;;;;;;;;;;;5095755;28;19964;-71
2023/10/10 03:39:54;;;;;;;;;;;;;;;;;;5095843;28;20387;-70
2023/10/10 05:24:09;;;;;;;;;;;;;;;;;;5092606;28;19998;-68
2023/10/10 05:26:46;;;;;;;;;;;;;;;;;;5074914;28;20344;-69
2023/10/10 05:29:11;;;;;;;;;;;;;;;;;;5081077;28;19908;-69
2023/10/10 05:31:37;;;;;;;;;;;;;;;;;;5090118;28;20413;-69
2023/10/10 05:34:03;;;;;;;;;;;;;;;;;;5085815;28;19911;-70
2023/10/10 05:36:29;;;;;;;;;;;;;;;;;;5087543;28;19918;-68
2023/10/10 05:38:55;;;;;;;;;;;;;;;;;;5088099;28;19924;-68
2023/10/10 05:41:22;;;;;;;;;;;;;;;;;;5081488;28;20007;-69
2023/10/10 05:43:51;;;;;;;;;;;;;;;;;;5092087;28;20351;-69
2023/10/10 05:46:17;;;;;;;;;;;;;;;;;;5093801;28;19914;-69
2023/10/10 05:48:44;;;;;;;;;;;;;;;;;;5094073;28;19904;-69
2023/10/10 05:51:13;;;;;;;;;;;;;;;;;;5093417;28;19961;-69
2023/10/10 05:53:40;;;;;;;;;;;;;;;;;;5094835;28;19968;-68
2023/10/10 05:56:12;;;;;;;;;;;;;;;;;;5076568;28;19908;-68
2023/10/10 05:58:38;;;;;;;;;;;;;;;;;;5095251;28;19910;-65
2023/10/10 06:01:04;;;;;;;;;;;;;;;;;;5096228;28;20004;-65
2023/10/10 06:03:31;;;;;;;;;;;;;;;;;;5095656;28;19926;-68
2023/10/10 06:05:58;;;;;;;;;;;;;;;;;;5091673;28;19914;-67
2023/10/10 06:08:25;;;;;;;;;;;;;;;;;;5093296;28;20020;-68
2023/10/10 06:10:53;;;;;;;;;;;;;;;;;;5077291;28;19904;-67
2023/10/10 06:13:19;;;;;;;;;;;;;;;;;;5085469;28;19973;-66
2023/10/10 06:15:45;;;;;;;;;;;;;;;;;;5089077;28;19908;-66
2023/10/10 06:18:15;;;;;;;;;;;;;;;;;;5093910;28;20352;-66
2023/10/10 06:20:45;;;;;;;;;;;;;;;;;;5043079;28;20070;-66
2023/10/10 06:23:20;;;;;;;;;;;;;;;;;;5051925;28;19963;-66
2023/10/10 06:25:50;;;;;;;;;;;;;;;;;;5051138;28;19908;-66
2023/10/10 06:28:22;;;;;;;;;;;;;;;;;;5050690;28;19908;-66
2023/10/10 06:30:52;;;;;;;;;;;;;;;;;;5050801;28;19909;-67
2023/10/10 06:33:18;;;;;;;;;;;;;;;;;;5049571;28;19916;-67
2023/10/10 06:35:53;;;;;;;;;;;;;;;;;;5041933;28;19909;-65
2023/10/10 06:38:24;;;;;;;;;;;;;;;;;;5051900;28;19928;-63
2023/10/10 06:40:53;;;;;;;;;;;;;;;;;;5051885;28;19924;-63
2023/10/10 06:43:19;;;;;;;;;;;;;;;;;;5051241;28;19963;-63
2023/10/10 06:45:52;;;;;;;;;;;;;;;;;;5054028;28;19991;-66
2023/10/10 06:48:21;;;;;;;;;;;;;;;;;;5052707;28;20031;-65
2023/10/10 06:50:49;;;;;;;;;;;;;;;;;;5054629;28;19912;-65
2023/10/10 06:53:28;;;;;;;;;;;;;;;;;;5053044;28;19955;-65
2023/10/10 06:55:54;;;;;;;;;;;;;;;;;;5051785;28;19999;-66
2023/10/10 07:00:45;;;;;;;;;;;;;;;;;;5105909;27;20566;-64
2023/10/10 07:03:46;;;;;;;;;;;;;;;;;;5106853;27;19922;-66
2023/10/10 07:06:12;;;;;;;;;;;;;;;;;;5106648;28;19918;-67
2023/10/10 07:08:38;;;;;;;;;;;;;;;;;;5106307;28;19912;-66
2023/10/10 07:11:05;;;;;;;;;;;;;;;;;;5106561;28;19912;-70
2023/10/10 07:13:31;;;;;;;;;;;;;;;;;;5105877;28;19916;-65
2023/10/10 07:15:57;;;;;;;;;;;;;;;;;;5104945;28;19920;-67
2023/10/10 07:18:23;;;;;;;;;;;;;;;;;;5104733;28;19908;-66
2023/10/10 07:21:08;;;;;;;;;;;;;;;;;;5106929;28;19916;-65
2023/10/10 07:23:37;;;;;;;;;;;;;;;;;;5105024;28;20382;-67
2023/10/10 07:26:05;;;;;;;;;;;;;;;;;;5114788;28;19908;-67
2023/10/10 07:28:36;;;;;;;;;;;;;;;;;;5113885;27;19915;-66
2023/10/10 07:31:02;;;;;;;;;;;;;;;;;;5108336;28;19958;-64
2023/10/10 07:33:40;;;;;;;;;;;;;;;;;;5106814;28;20001;-67
2023/10/10 07:36:06;;;;;;;;;;;;;;;;;;5106681;28;19912;-68
2023/10/10 07:38:35;;;;;;;;;;;;;;;;;;5108921;28;20462;-67
2023/10/10 07:41:04;;;;;;;;;;;;;;;;;;5107906;28;20273;-67
2023/10/10 07:43:34;;;;;;;;;;;;;;;;;;5110647;28;20065;-67
2023/10/10 07:46:12;;;;;;;;;;;;;;;;;;5094901;28;19920;-67
2023/10/10 07:48:39;;;;;;;;;;;;;;;;;;5106221;28;19912;-66
2023/10/10 07:51:08;;;;;;;;;;;;;;;;;;5111348;28;19951;-64
2023/10/10 07:53:34;;;;;;;;;;;;;;;;;;5102863;28;19917;-66
2023/10/10 07:56:03;;;;;;;;;;;;;;;;;;5105800;28;20048;-64
2023/10/10 07:58:49;;;;;;;;;;;;;;;;;;5104089;28;19927;-66
2023/10/10 08:01:18;;;;;;;;;;;;;;;;;;5104976;28;19908;-64
2023/10/10 08:03:44;;;;;;;;;;;;;;;;;;5123069;28;19930;-65
2023/10/10 08:06:10;;;;;;;;;;;;;;;;;;5108598;28;19916;-65
2023/10/10 08:08:36;;;;;;;;;;;;;;;;;;5103904;28;19912;-66
2023/10/10 08:11:12;;;;;;;;;;;;;;;;;;5103978;28;19919;-66
2023/10/10 08:13:38;;;;;;;;;;;;;;;;;;5099106;28;20010;-64
2023/10/10 08:16:04;;;;;;;;;;;;;;;;;;5075187;28;19995;-69
2023/10/10 08:21:08;;;;;;;;;;;;;;;;;;5095216;28;19916;-68
2023/10/10 08:23:36;;;;;;;;;;;;;;;;;;5114188;28;19968;-69
2023/10/10 08:26:02;;;;;;;;;;;;;;;;;;5111339;28;19918;-69
2023/10/10 08:28:28;;;;;;;;;;;;;;;;;;5075987;28;20284;-67
2023/10/10 08:30:54;;;;;;;;;;;;;;;;;;5098163;28;19977;-66
2023/10/10 08:33:20;;;;;;;;;;;;;;;;;;5094814;28;19919;-67
2023/10/10 08:35:46;;;;;;;;;;;;;;;;;;5094606;28;20327;-67
2023/10/10 08:38:19;;;;;;;;;;;;;;;;;;5094448;28;20014;-67
2023/10/10 08:40:47;;;;;;;;;;;;;;;;;;5093488;28;19930;-66
2023/10/10 08:43:14;;;;;;;;;;;;;;;;;;5095797;28;19927;-68
2023/10/10 08:45:39;;;;;;;;;;;;;;;;;;5091424;28;20546;-69
2023/10/10 08:48:12;;;;;;;;;;;;;;;;;;5089108;28;20276;-67
2023/10/10 08:50:38;;;;;;;;;;;;;;;;;;5093836;28;20275;-68
2023/10/10 08:53:05;;;;;;;;;;;;;;;;;;5100247;28;20618;-67
2023/10/10 08:55:34;;;;;;;;;;;;;;;;;;5091031;28;19912;-67
2023/10/10 08:58:00;;;;;;;;;;;;;;;;;;5074473;28;19916;-67
2023/10/10 09:00:27;;;;;;;;;;;;;;;;;;5088219;28;19919;-67
2023/10/10 09:02:56;;;;;;;;;;;;;;;;;;5078208;28;19930;-68
2023/10/10 09:05:23;;;;;;;;;;;;;;;;;;5082705;28;19916;-68
2023/10/10 09:07:54;;;;;;;;;;;;;;;;;;5083498;28;20391;-68
2023/10/10 09:10:20;;;;;;;;;;;;;;;;;;5086993;28;20447;-69
2023/10/10 09:12:52;;;;;;;;;;;;;;;;;;5090461;28;20573;-67
2023/10/10 09:15:18;;;;;;;;;;;;;;;;;;5089877;28;19916;-67
2023/10/10 09:17:45;;;;;;;;;;;;;;;;;;5091135;28;19916;-68
2023/10/10 09:20:22;;;;;;;;;;;;;;;;;;5091049;28;20022;-67
2023/10/10 09:22:51;;;;;;;;;;;;;;;;;;5091261;28;19916;-68
2023/10/10 09:25:17;;;;;;;;;;;;;;;;;;5092094;28;19912;-68
2023/10/10 09:27:44;;;;;;;;;;;;;;;;;;5090447;28;19916;-68
2023/10/10 09:30:15;;;;;;;;;;;;;;;;;;5088116;28;19951;-68
2023/10/10 09:32:42;;;;;;;;;;;;;;;;;;5089963;28;19916;-68
2023/10/10 09:35:08;;;;;;;;;;;;;;;;;;5090892;28;19919;-67
2023/10/10 09:37:35;;;;;;;;;;;;;;;;;;5089979;28;19924;-67
2023/10/10 09:40:04;;;;;;;;;;;;;;;;;;5094990;28;19989;-67
2023/10/10 09:43:24;;;;;;;;;;;;;;;;;;5093118;28;20358;-68
2023/10/10 09:45:18;;;;;;;;;;;;;;;;;;5096257;28;19912;-67
2023/10/10 09:47:55;;;;;;;;;;;;;;;;;;5086867;28;19989;-67
2023/10/10 09:52:49;;;;;;;;;;;;;;;;;;5105315;28;19970;-67
2023/10/10 09:57:58;;;;;;;;;;;;;;;;;;5106668;28;19931;-68
2023/10/10 10:00:30;;;;;;;;;;;;;;;;;;5097627;28;19911;-68
2023/10/10 10:02:59;;;;;;;;;;;;;;;;;;5111429;28;19920;-69
2023/10/10 10:05:28;;;;;;;;;;;;;;;;;;5087392;28;19938;-68
2023/10/10 10:10:22;;;;;;;;;;;;;;;;;;5086166;27;19966;-67
2023/10/10 10:12:48;;;;;;;;;;;;;;;;;;5084262;28;20325;-67
2023/10/10 10:15:16;;;;;;;;;;;;;;;;;;5074271;28;19999;-67
2023/10/10 10:17:48;;;;;;;;;;;;;;;;;;5082285;28;19943;-68
2023/10/10 10:20:20;;;;;;;;;;;;;;;;;;5085543;28;19995;-68
2023/10/10 10:22:48;;;;;;;;;;;;;;;;;;5086565;28;19912;-70
2023/10/10 10:25:22;;;;;;;;;;;;;;;;;;5081070;28;20598;-69
2023/10/10 10:27:49;;;;;;;;;;;;;;;;;;5085153;28;19969;-69
2023/10/10 10:32:44;;;;;;;;;;;;;;;;;;5088083;28;19995;-68
2023/10/10 10:35:15;;;;;;;;;;;;;;;;;;5088072;28;20359;-67
2023/10/10 10:37:42;;;;;;;;;;;;;;;;;;5082944;28;19912;-68
2023/10/10 10:42:37;;;;;;;;;;;;;;;;;;5087907;28;19912;-68
2023/10/10 10:45:04;;;;;;;;;;;;;;;;;;5076131;28;20478;-68
2023/10/10 10:47:54;;;;;;;;;;;;;;;;;;5082301;28;20414;-67
2023/10/10 10:50:27;;;;;;;;;;;;;;;;;;5084000;28;19920;-67
2023/10/10 10:52:56;;;;;;;;;;;;;;;;;;5086167;28;19912;-69
2023/10/10 10:55:23;;;;;;;;;;;;;;;;;;5085006;28;20372;-68
2023/10/10 10:58:05;;;;;;;;;;;;;;;;;;5086065;28;20350;-68
2023/10/10 11:00:41;;;;;;;;;;;;;;;;;;5076428;28;19916;-67
2023/10/10 11:03:11;;;;;;;;;;;;;;;;;;5082403;28;19986;-66
2023/10/10 11:05:37;;;;;;;;;;;;;;;;;;5083625;28;19908;-72
2023/10/10 11:08:11;;;;;;;;;;;;;;;;;;5087048;28;19925;-74
2023/10/10 11:10:37;;;;;;;;;;;;;;;;;;5106955;28;19920;-72
2023/10/10 11:13:07;;;;;;;;;;;;;;;;;;5104439;28;19916;-71
2023/10/10 11:15:38;;;;;;;;;;;;;;;;;;5104973;28;20379;-74
2023/10/10 11:18:10;;;;;;;;;;;;;;;;;;5096086;28;19919;-75
2023/10/10 11:20:54;;;;;;;;;;;;;;;;;;5096036;28;19991;-73
2023/10/10 11:23:21;;;;;;;;;;;;;;;;;;5083562;28;19939;-73
2023/10/10 11:25:58;;;;;;;;;;;;;;;;;;5083821;28;19915;-72
2023/10/10 11:28:36;;;;;;;;;;;;;;;;;;5086379;28;19922;-72
2023/10/10 11:31:07;;;;;;;;;;;;;;;;;;5088448;28;20352;-72
2023/10/10 11:33:46;;;;;;;;;;;;;;;;;;5061552;28;19908;-73
2023/10/10 11:36:12;;;;;;;;;;;;;;;;;;5089701;28;19923;-73
2023/10/10 11:38:39;;;;;;;;;;;;;;;;;;5090704;28;19908;-74
2023/10/10 11:41:09;;;;;;;;;;;;;;;;;;5087152;28;19918;-74
2023/10/10 11:43:37;;;;;;;;;;;;;;;;;;5089259;28;19908;-73
2023/10/10 11:46:03;;;;;;;;;;;;;;;;;;5088352;28;20497;-71
2023/10/10 11:48:29;;;;;;;;;;;;;;;;;;5068445;28;19916;-72
2023/10/10 11:50:59;;;;;;;;;;;;;;;;;;5093188;28;19916;-71
2023/10/10 11:53:27;;;;;;;;;;;;;;;;;;5090676;28;19918;-73
2023/10/10 11:55:53;;;;;;;;;;;;;;;;;;5088945;28;19915;-74
2023/10/10 11:58:19;;;;;;;;;;;;;;;;;;5093979;28;19912;-73
2023/10/10 12:00:45;;;;;;;;;;;;;;;;;;5071952;28;19916;-72
2023/10/10 12:03:11;;;;;;;;;;;;;;;;;;5092348;28;19955;-72
2023/10/10 12:05:50;;;;;;;;;;;;;;;;;;5093480;28;19958;-72
2023/10/10 12:08:22;;;;;;;;;;;;;;;;;;5090718;28;19920;-73
2023/10/10 12:10:52;;;;;;;;;;;;;;;;;;5092565;28;19912;-70
2023/10/10 12:15:57;;;;;;;;;;;;;;;;;;5092919;28;19915;-71
2023/10/10 12:18:26;;;;;;;;;;;;;;;;;;5092519;28;19912;-71
2023/10/10 12:20:55;;;;;;;;;;;;;;;;;;5093293;28;19959;-71
2023/10/10 12:23:21;;;;;;;;;;;;;;;;;;5103756;28;19917;-70
2023/10/10 12:25:49;;;;;;;;;;;;;;;;;;5108486;28;20495;-72
2023/10/10 12:28:18;;;;;;;;;;;;;;;;;;5112951;28;20283;-72
2023/10/10 12:30:43;;;;;;;;;;;;;;;;;;5111808;28;20422;-72
2023/10/10 12:33:12;;;;;;;;;;;;;;;;;;5098922;28;19920;-72
2023/10/10 12:35:42;;;;;;;;;;;;;;;;;;5074437;28;19908;-71
2023/10/10 12:38:08;;;;;;;;;;;;;;;;;;5093181;28;20366;-71
2023/10/10 12:40:36;;;;;;;;;;;;;;;;;;5091542;28;20348;-72
2023/10/10 12:43:03;;;;;;;;;;;;;;;;;;5098721;28;19930;-71
2023/10/10 12:45:29;;;;;;;;;;;;;;;;;;5095406;28;19916;-71
2023/10/10 12:47:57;;;;;;;;;;;;;;;;;;5096308;28;19957;-71
2023/10/10 12:50:26;;;;;;;;;;;;;;;;;;5094239;28;20277;-72
2023/10/10 12:53:07;;;;;;;;;;;;;;;;;;5094235;28;19912;-72
2023/10/10 12:55:33;;;;;;;;;;;;;;;;;;5094642;28;19943;-72
2023/10/10 12:58:04;;;;;;;;;;;;;;;;;;5094546;28;19946;-72
2023/10/10 13:00:33;;;;;;;;;;;;;;;;;;5093639;28;19908;-73
2023/10/10 13:02:59;;;;;;;;;;;;;;;;;;5093281;28;19908;-72
2023/10/10 13:05:28;;;;;;;;;;;;;;;;;;5091560;28;20275;-72
2023/10/10 13:07:55;;;;;;;;;;;;;;;;;;5091502;28;19919;-72
2023/10/10 13:10:26;;;;;;;;;;;;;;;;;;5091058;28;19920;-71
2023/10/10 13:12:52;;;;;;;;;;;;;;;;;;5091659;28;19964;-72
2023/10/10 13:15:18;;;;;;;;;;;;;;;;;;5091223;28;19920;-72
2023/10/10 13:17:52;;;;;;;;;;;;;;;;;;5091286;28;19915;-71
2023/10/10 13:20:18;;;;;;;;;;;;;;;;;;5090337;28;19974;-71
2023/10/10 13:22:50;;;;;;;;;;;;;;;;;;5090697;28;19909;-71
2023/10/10 13:25:16;;;;;;;;;;;;;;;;;;5092447;28;19979;-71
2023/10/10 13:27:45;;;;;;;;;;;;;;;;;;5089985;28;20462;-71
2023/10/10 13:30:12;;;;;;;;;;;;;;;;;;5092075;28;19920;-71
2023/10/10 13:32:38;;;;;;;;;;;;;;;;;;5091752;28;19908;-71
2023/10/10 13:35:05;;;;;;;;;;;;;;;;;;5091348;28;19915;-71
2023/10/10 13:37:31;;;;;;;;;;;;;;;;;;5073499;28;19908;-71
2023/10/10 13:39:59;;;;;;;;;;;;;;;;;;5093227;28;19915;-72
2023/10/10 13:42:25;;;;;;;;;;;;;;;;;;5093621;28;19931;-72
2023/10/10 13:45:00;;;;;;;;;;;;;;;;;;5090710;28;19908;-72
2023/10/10 13:47:27;;;;;;;;;;;;;;;;;;5093315;28;20371;-72
2023/10/10 13:50:28;;;;;;;;;;;;;;;;;;5093000;28;19924;-72
2023/10/10 13:52:39;;;;;;;;;;;;;;;;;;5091744;28;19908;-72
2023/10/10 13:55:05;;;;;;;;;;;;;;;;;;5073856;28;20379;-72
2023/10/10 13:57:31;;;;;;;;;;;;;;;;;;5091568;28;19908;-72
2023/10/10 13:59:56;;;;;;;;;;;;;;;;;;5091980;28;19915;-72
2023/10/10 14:02:25;;;;;;;;;;;;;;;;;;5090369;28;19909;-72
2023/10/10 14:04:51;;;;;;;;;;;;;;;;;;5091208;28;20279;-71
2023/10/10 14:07:17;;;;;;;;;;;;;;;;;;5091878;28;19934;-72
2023/10/10 14:09:48;;;;;;;;;;;;;;;;;;5086586;28;19920;-72
2023/10/10 14:12:20;;;;;;;;;;;;;;;;;;5091824;28;19915;-73
2023/10/10 14:14:46;;;;;;;;;;;;;;;;;;5073806;28;19915;-72
2023/10/10 14:17:12;;;;;;;;;;;;;;;;;;5092470;28;19916;-72
2023/10/10 14:19:38;;;;;;;;;;;;;;;;;;5093827;28;19966;-72
2023/10/10 14:22:10;;;;;;;;;;;;;;;;;;5093759;28;19912;-72
2023/10/10 14:24:36;;;;;;;;;;;;;;;;;;5093422;28;19909;-72
2023/10/10 14:27:02;;;;;;;;;;;;;;;;;;5093763;28;19919;-71
2023/10/10 14:29:40;;;;;;;;;;;;;;;;;;5093581;28;20010;-71
2023/10/10 14:32:10;;;;;;;;;;;;;;;;;;5075212;28;19962;-71
2023/10/10 14:34:38;;;;;;;;;;;;;;;;;;5093658;28;19955;-71
2023/10/10 14:37:04;;;;;;;;;;;;;;;;;;5080129;28;19916;-71
2023/10/10 14:39:44;;;;;;;;;;;;;;;;;;5067879;28;19983;-71
2023/10/10 14:42:10;;;;;;;;;;;;;;;;;;5055561;28;19908;-71
2023/10/10 14:44:40;;;;;;;;;;;;;;;;;;5055054;28;19908;-71
2023/10/10 14:47:07;;;;;;;;;;;;;;;;;;5073821;28;19924;-71
2023/10/10 14:49:34;;;;;;;;;;;;;;;;;;5073075;28;19916;-71
2023/10/10 14:52:03;;;;;;;;;;;;;;;;;;5072951;28;19916;-71
2023/10/10 14:54:30;;;;;;;;;;;;;;;;;;5073336;28;19916;-71
2023/10/10 14:56:56;;;;;;;;;;;;;;;;;;5077042;28;20357;-71
2023/10/10 14:59:25;;;;;;;;;;;;;;;;;;5076468;28;19919;-71
2023/10/10 15:01:51;;;;;;;;;;;;;;;;;;5076952;28;19952;-71
2023/10/10 15:04:17;;;;;;;;;;;;;;;;;;5077002;28;19915;-71
2023/10/10 15:06:43;;;;;;;;;;;;;;;;;;5076409;28;19909;-71
2023/10/10 15:09:13;;;;;;;;;;;;;;;;;;5076435;28;19924;-70
2023/10/10 15:11:41;;;;;;;;;;;;;;;;;;5076770;28;20327;-70
2023/10/10 15:14:09;;;;;;;;;;;;;;;;;;5076324;28;19976;-70
2023/10/10 15:16:35;;;;;;;;;;;;;;;;;;5076680;28;19932;-70
2023/10/10 15:19:06;;;;;;;;;;;;;;;;;;5076778;28;19908;-71
2023/10/10 15:21:35;;;;;;;;;;;;;;;;;;5058267;28;19959;-71
2023/10/10 15:24:01;;;;;;;;;;;;;;;;;;5076627;28;19977;-71
2023/10/10 15:26:27;;;;;;;;;;;;;;;;;;5076589;28;19987;-71
2023/10/10 15:28:53;;;;;;;;;;;;;;;;;;5076027;28;19917;-72
2023/10/10 15:31:19;;;;;;;;;;;;;;;;;;5076461;28;20130;-71
2023/10/10 15:33:47;;;;;;;;;;;;;;;;;;5076471;28;19912;-71
2023/10/10 15:36:16;;;;;;;;;;;;;;;;;;5076007;28;20372;-71
2023/10/10 15:38:43;;;;;;;;;;;;;;;;;;5058368;28;19912;-71
2023/10/10 15:41:10;;;;;;;;;;;;;;;;;;5075935;28;19916;-71
2023/10/10 15:43:36;;;;;;;;;;;;;;;;;;5076197;28;19908;-71
2023/10/10 15:46:06;;;;;;;;;;;;;;;;;;5076164;28;19913;-71
2023/10/10 15:48:42;;;;;;;;;;;;;;;;;;5057863;28;19995;-71
2023/10/10 15:51:08;;;;;;;;;;;;;;;;;;5076722;28;20406;-71
2023/10/10 15:53:42;;;;;;;;;;;;;;;;;;5075981;28;20360;-71
2023/10/10 15:56:08;;;;;;;;;;;;;;;;;;5057778;28;20288;-71
2023/10/10 15:58:35;;;;;;;;;;;;;;;;;;5076002;28;19916;-72
2023/10/10 16:01:01;;;;;;;;;;;;;;;;;;5058017;28;20356;-71
2023/10/10 16:03:27;;;;;;;;;;;;;;;;;;5075627;28;19909;-71
2023/10/10 16:05:53;;;;;;;;;;;;;;;;;;5057758;28;19930;-71
2023/10/10 16:08:19;;;;;;;;;;;;;;;;;;5057598;28;20004;-71
2023/10/10 16:10:45;;;;;;;;;;;;;;;;;;5075392;28;20260;-71
2023/10/10 16:13:11;;;;;;;;;;;;;;;;;;5075623;28;19961;-71
2023/10/10 16:15:37;;;;;;;;;;;;;;;;;;5075563;28;19912;-71
2023/10/10 16:18:04;;;;;;;;;;;;;;;;;;5075167;28;19915;-71
2023/10/10 16:20:35;;;;;;;;;;;;;;;;;;5075915;28;19912;-71
2023/10/10 16:23:01;;;;;;;;;;;;;;;;;;5075443;28;19988;-71
2023/10/10 16:25:27;;;;;;;;;;;;;;;;;;5075044;28;19943;-71
2023/10/10 16:27:54;;;;;;;;;;;;;;;;;;5075167;28;19909;-71
2023/10/10 16:30:21;;;;;;;;;;;;;;;;;;5074811;28;19917;-70
2023/10/10 16:32:49;;;;;;;;;;;;;;;;;;5075483;28;19944;-70
2023/10/10 16:35:15;;;;;;;;;;;;;;;;;;5057655;28;19916;-71
2023/10/10 16:37:42;;;;;;;;;;;;;;;;;;5074770;28;20276;-71
2023/10/10 16:40:08;;;;;;;;;;;;;;;;;;5075010;28;20380;-70
2023/10/10 16:44:53;;;;;;;;;;;;;;;;;;5111825;27;20291;-71
2023/10/10 16:47:20;;;;;;;;;;;;;;;;;;5112346;28;19916;-71
2023/10/10 16:49:48;;;;;;;;;;;;;;;;;;5111761;28;20006;-70
2023/10/10 16:52:14;;;;;;;;;;;;;;;;;;5109952;28;19919;-71
2023/10/10 16:54:46;;;;;;;;;;;;;;;;;;5111572;28;19995;-70
2023/10/10 16:57:12;;;;;;;;;;;;;;;;;;5111592;28;19955;-71
2023/10/10 16:59:38;;;;;;;;;;;;;;;;;;5109882;28;19957;-72
2023/10/10 17:02:03;;;;;;;;;;;;;;;;;;5111052;28;20287;-71
2023/10/10 17:04:29;;;;;;;;;;;;;;;;;;5110155;28;20294;-70
2023/10/10 17:06:55;;;;;;;;;;;;;;;;;;5110996;28;20284;-70
2023/10/10 17:09:23;;;;;;;;;;;;;;;;;;5111297;28;19952;-71
2023/10/10 17:11:50;;;;;;;;;;;;;;;;;;5111146;28;19912;-69
2023/10/10 17:14:16;;;;;;;;;;;;;;;;;;5110728;28;19908;-71
2023/10/10 17:16:42;;;;;;;;;;;;;;;;;;5111043;28;19908;-71
2023/10/10 17:19:08;;;;;;;;;;;;;;;;;;5111091;28;20325;-71
2023/10/10 17:21:34;;;;;;;;;;;;;;;;;;5110800;28;19908;-71
2023/10/10 17:24:03;;;;;;;;;;;;;;;;;;5111012;28;19922;-71
2023/10/10 17:26:30;;;;;;;;;;;;;;;;;;5110989;28;19958;-71
2023/10/10 17:30:59;;;;;;;;;;;;;;;;;;5091562;27;19923;-70
2023/10/10 17:33:24;;;;;;;;;;;;;;;;;;5091041;28;19955;-70
2023/10/10 17:36:22;;;;;;;;;;;;;;;;;;5112029;27;20260;-71
2023/10/10 17:38:48;;;;;;;;;;;;;;;;;;5111737;28;19912;-71
2023/10/10 17:41:13;;;;;;;;;;;;;;;;;;5111328;28;19908;-71
2023/10/10 17:43:41;;;;;;;;;;;;;;;;;;5111734;28;20290;-71
2023/10/10 17:51:19;;;;;;;;;;;;;;;;;;5112502;27;20306;-71
2023/10/10 17:53:44;;;;;;;;;;;;;;;;;;5112201;28;20003;-71
2023/10/10 17:56:14;;;;;;;;;;;;;;;;;;5109856;28;20329;-69
2023/10/10 17:58:40;;;;;;;;;;;;;;;;;;5111549;28;19915;-71
2023/10/10 18:01:06;;;;;;;;;;;;;;;;;;5111509;28;20265;-68
2023/10/10 18:03:35;;;;;;;;;;;;;;;;;;5109754;28;19959;-70
2023/10/10 18:06:01;;;;;;;;;;;;;;;;;;5111385;28;20368;-70
2023/10/10 18:08:27;;;;;;;;;;;;;;;;;;5111346;28;20371;-70
2023/10/10 18:10:53;;;;;;;;;;;;;;;;;;5110824;28;20325;-69
2023/10/10 18:13:19;;;;;;;;;;;;;;;;;;5111177;28;19912;-69
2023/10/10 18:15:46;;;;;;;;;;;;;;;;;;5109523;28;19908;-69
2023/10/10 18:18:12;;;;;;;;;;;;;;;;;;5111024;28;20432;-69
2023/10/10 18:20:40;;;;;;;;;;;;;;;;;;5109809;28;20006;-69
2023/10/10 18:23:06;;;;;;;;;;;;;;;;;;5110683;28;19912;-70
2023/10/10 18:25:32;;;;;;;;;;;;;;;;;;5110999;28;19908;-70
2023/10/10 18:27:58;;;;;;;;;;;;;;;;;;5109767;28;20270;-70
2023/10/10 18:30:24;;;;;;;;;;;;;;;;;;5110479;28;19916;-70
2023/10/10 18:32:50;;;;;;;;;;;;;;;;;;5110918;28;19908;-70
2023/10/10 18:37:30;;;;;;;;;;;;;;;;;;5111484;27;19912;-72
2023/10/10 18:39:55;;;;;;;;;;;;;;;;;;5110449;28;20038;-70
2023/10/10 18:42:21;;;;;;;;;;;;;;;;;;5111687;28;19921;-71
2023/10/10 18:44:47;;;;;;;;;;;;;;;;;;5111329;28;19912;-71
2023/10/10 18:47:14;;;;;;;;;;;;;;;;;;5111551;28;19986;-71
2023/10/10 18:51:53;;;;;;;;;;;;;;;;;;5111489;27;19916;-70
2023/10/10 18:54:19;;;;;;;;;;;;;;;;;;5111674;28;20010;-70
2023/10/10 18:56:45;;;;;;;;;;;;;;;;;;5111711;28;19908;-69
2023/10/10 19:03:22;;;;;;;;;;;;;;;;;;5112337;27;19922;-71
2023/10/10 19:05:50;;;;;;;;;;;;;;;;;;5111222;28;19912;-70
2023/10/10 19:08:17;;;;;;;;;;;;;;;;;;5111560;28;19908;-70
2023/10/10 19:10:43;;;;;;;;;;;;;;;;;;5111510;28;19966;-70
2023/10/10 19:13:09;;;;;;;;;;;;;;;;;;5111252;28;20368;-70
2023/10/10 19:15:37;;;;;;;;;;;;;;;;;;5110264;28;19908;-70
2023/10/10 19:18:03;;;;;;;;;;;;;;;;;;5111655;28;19952;-70
2023/10/10 19:20:32;;;;;;;;;;;;;;;;;;5111133;28;19970;-70
2023/10/10 19:22:58;;;;;;;;;;;;;;;;;;5111468;28;19923;-70
2023/10/10 19:26:27;;;;;;;;;;;;;;;;;;5091188;27;20402;-71
2023/10/10 19:28:53;;;;;;;;;;;;;;;;;;5090156;28;19999;-69
2023/10/10 19:31:20;;;;;;;;;;;;;;;;;;5090016;28;19908;-70
2023/10/10 19:33:45;;;;;;;;;;;;;;;;;;5090799;28;19965;-71
2023/10/10 19:36:12;;;;;;;;;;;;;;;;;;5090937;28;19999;-71
2023/10/10 19:38:56;;;;;;;;;;;;;;;;;;5112524;27;20386;-71
2023/10/10 19:41:22;;;;;;;;;;;;;;;;;;5111362;28;20380;-71